sensor_id;sensor_type;location;lat;lon;timestamp;temperature;humidity
76263;DHT22;65080;50.908;6.916;2023-04-06T00:00:00;6.10;48.50
76263;DHT22;65080;50.908;6.916;2023-04-06T00:02:28;6.10;48.60
76263;DHT22;65080;50.908;6.916;2023-04-06T00:04:58;6.10;48.70
76263;DHT22;65080;50.908;6.916;2023-04-06T00:07:26;6.00;48.70
76263;DHT22;65080;50.908;6.916;2023-04-06T00:09:56;6.00;48.80
76263;DHT22;65080;50.908;6.916;2023-04-06T00:12:24;5.90;48.80
76263;DHT22;65080;50.908;6.916;2023-04-06T00:14:52;5.80;48.80
76263;DHT22;65080;50.908;6.916;2023-04-06T00:17:21;5.70;49.00
76263;DHT22;65080;50.908;6.916;2023-04-06T00:19:49;5.70;49.30
76263;DHT22;65080;50.908;6.916;2023-04-06T00:22:19;5.70;49.70
76263;DHT22;65080;50.908;6.916;2023-04-06T00:24:47;5.60;49.90
76263;DHT22;65080;50.908;6.916;2023-04-06T00:27:15;5.60;50.00
76263;DHT22;65080;50.908;6.916;2023-04-06T00:29:43;5.50;50.00
76263;DHT22;65080;50.908;6.916;2023-04-06T00:32:12;5.50;50.10
76263;DHT22;65080;50.908;6.916;2023-04-06T00:34:40;5.50;50.40
76263;DHT22;65080;50.908;6.916;2023-04-06T00:37:08;5.40;50.50
76263;DHT22;65080;50.908;6.916;2023-04-06T00:39:38;5.40;50.50
76263;DHT22;65080;50.908;6.916;2023-04-06T00:42:09;5.40;50.60
76263;DHT22;65080;50.908;6.916;2023-04-06T00:44:38;5.50;50.80
76263;DHT22;65080;50.908;6.916;2023-04-06T00:47:06;5.40;50.70
76263;DHT22;65080;50.908;6.916;2023-04-06T00:49:35;5.40;50.80
76263;DHT22;65080;50.908;6.916;2023-04-06T00:52:03;5.40;50.90
76263;DHT22;65080;50.908;6.916;2023-04-06T00:54:31;5.40;51.00
76263;DHT22;65080;50.908;6.916;2023-04-06T00:57:01;5.40;51.00
76263;DHT22;65080;50.908;6.916;2023-04-06T00:59:29;5.40;51.10
76263;DHT22;65080;50.908;6.916;2023-04-06T01:01:58;5.40;51.10
76263;DHT22;65080;50.908;6.916;2023-04-06T01:04:26;5.40;51.20
76263;DHT22;65080;50.908;6.916;2023-04-06T01:10:42;5.40;51.30
76263;DHT22;65080;50.908;6.916;2023-04-06T01:13:12;5.40;51.00
76263;DHT22;65080;50.908;6.916;2023-04-06T01:15:40;5.40;51.10
76263;DHT22;65080;50.908;6.916;2023-04-06T01:18:09;5.40;51.20
76263;DHT22;65080;50.908;6.916;2023-04-06T01:20:37;5.40;51.30
76263;DHT22;65080;50.908;6.916;2023-04-06T01:23:07;5.40;51.30
76263;DHT22;65080;50.908;6.916;2023-04-06T01:25:35;5.30;51.30
76263;DHT22;65080;50.908;6.916;2023-04-06T01:28:03;5.30;51.50
76263;DHT22;65080;50.908;6.916;2023-04-06T01:30:31;5.30;51.50
76263;DHT22;65080;50.908;6.916;2023-04-06T01:33:00;5.30;51.60
76263;DHT22;65080;50.908;6.916;2023-04-06T01:35:29;5.20;51.50
76263;DHT22;65080;50.908;6.916;2023-04-06T01:37:57;5.20;51.50
76263;DHT22;65080;50.908;6.916;2023-04-06T01:40:27;5.20;51.50
76263;DHT22;65080;50.908;6.916;2023-04-06T01:42:55;5.10;51.50
76263;DHT22;65080;50.908;6.916;2023-04-06T01:45:23;5.10;51.60
76263;DHT22;65080;50.908;6.916;2023-04-06T01:47:52;5.10;51.60
76263;DHT22;65080;50.908;6.916;2023-04-06T01:50:20;5.00;51.60
76263;DHT22;65080;50.908;6.916;2023-04-06T01:52:48;5.00;51.60
76263;DHT22;65080;50.908;6.916;2023-04-06T01:55:16;5.00;51.90
76263;DHT22;65080;50.908;6.916;2023-04-06T01:57:46;5.00;52.00
76263;DHT22;65080;50.908;6.916;2023-04-06T02:00:15;5.00;52.00
76263;DHT22;65080;50.908;6.916;2023-04-06T02:02:43;4.90;51.80
76263;DHT22;65080;50.908;6.916;2023-04-06T02:05:12;4.90;52.00
76263;DHT22;65080;50.908;6.916;2023-04-06T02:07:40;4.90;52.10
76263;DHT22;65080;50.908;6.916;2023-04-06T02:10:11;4.90;52.10
76263;DHT22;65080;50.908;6.916;2023-04-06T02:12:40;5.00;52.30
76263;DHT22;65080;50.908;6.916;2023-04-06T02:15:10;4.90;52.20
76263;DHT22;65080;50.908;6.916;2023-04-06T02:17:40;4.90;52.20
76263;DHT22;65080;50.908;6.916;2023-04-06T02:20:09;4.90;52.30
76263;DHT22;65080;50.908;6.916;2023-04-06T02:22:37;4.90;52.30
76263;DHT22;65080;50.908;6.916;2023-04-06T02:25:06;4.80;52.30
76263;DHT22;65080;50.908;6.916;2023-04-06T02:27:34;4.80;52.40
76263;DHT22;65080;50.908;6.916;2023-04-06T02:30:03;4.80;52.50
76263;DHT22;65080;50.908;6.916;2023-04-06T02:32:33;4.80;52.60
76263;DHT22;65080;50.908;6.916;2023-04-06T02:35:01;4.70;52.50
76263;DHT22;65080;50.908;6.916;2023-04-06T02:37:29;4.70;52.70
76263;DHT22;65080;50.908;6.916;2023-04-06T02:39:57;4.70;52.80
76263;DHT22;65080;50.908;6.916;2023-04-06T02:42:25;4.70;53.00
76263;DHT22;65080;50.908;6.916;2023-04-06T02:44:54;4.70;53.00
76263;DHT22;65080;50.908;6.916;2023-04-06T02:47:22;4.70;52.90
76263;DHT22;65080;50.908;6.916;2023-04-06T02:49:54;4.70;53.00
76263;DHT22;65080;50.908;6.916;2023-04-06T02:52:23;4.70;53.50
76263;DHT22;65080;50.908;6.916;2023-04-06T02:54:52;4.70;53.00
76263;DHT22;65080;50.908;6.916;2023-04-06T02:57:20;4.60;53.00
76263;DHT22;65080;50.908;6.916;2023-04-06T02:59:48;4.60;53.10
76263;DHT22;65080;50.908;6.916;2023-04-06T03:02:16;4.60;53.10
76263;DHT22;65080;50.908;6.916;2023-04-06T03:04:44;4.60;53.00
76263;DHT22;65080;50.908;6.916;2023-04-06T03:07:14;4.60;53.20
76263;DHT22;65080;50.908;6.916;2023-04-06T03:09:42;4.60;53.30
76263;DHT22;65080;50.908;6.916;2023-04-06T03:12:10;4.60;53.40
76263;DHT22;65080;50.908;6.916;2023-04-06T03:14:38;4.60;53.50
76263;DHT22;65080;50.908;6.916;2023-04-06T03:17:07;4.60;53.40
76263;DHT22;65080;50.908;6.916;2023-04-06T03:19:35;4.60;53.40
76263;DHT22;65080;50.908;6.916;2023-04-06T03:22:03;4.50;53.40
76263;DHT22;65080;50.908;6.916;2023-04-06T03:24:33;4.50;53.40
76263;DHT22;65080;50.908;6.916;2023-04-06T03:27:01;4.50;53.40
76263;DHT22;65080;50.908;6.916;2023-04-06T03:29:29;4.50;53.40
76263;DHT22;65080;50.908;6.916;2023-04-06T03:31:58;4.40;53.40
76263;DHT22;65080;50.908;6.916;2023-04-06T03:34:26;4.40;53.50
76263;DHT22;65080;50.908;6.916;2023-04-06T03:36:54;4.40;53.60
76263;DHT22;65080;50.908;6.916;2023-04-06T03:39:36;4.40;53.60
76263;DHT22;65080;50.908;6.916;2023-04-06T03:42:05;4.40;54.10
76263;DHT22;65080;50.908;6.916;2023-04-06T03:44:33;4.40;53.60
76263;DHT22;65080;50.908;6.916;2023-04-06T03:47:01;4.40;53.60
76263;DHT22;65080;50.908;6.916;2023-04-06T03:49:29;4.40;53.60
76263;DHT22;65080;50.908;6.916;2023-04-06T03:51:58;4.40;53.50
76263;DHT22;65080;50.908;6.916;2023-04-06T03:54:26;4.40;53.50
76263;DHT22;65080;50.908;6.916;2023-04-06T03:56:55;4.40;53.80
76263;DHT22;65080;50.908;6.916;2023-04-06T03:59:23;4.40;53.60
76263;DHT22;65080;50.908;6.916;2023-04-06T04:01:52;4.40;53.60
76263;DHT22;65080;50.908;6.916;2023-04-06T04:04:20;4.40;53.60
76263;DHT22;65080;50.908;6.916;2023-04-06T04:06:48;4.40;53.60
76263;DHT22;65080;50.908;6.916;2023-04-06T04:09:16;4.40;53.60
76263;DHT22;65080;50.908;6.916;2023-04-06T04:11:44;4.40;53.70
76263;DHT22;65080;50.908;6.916;2023-04-06T04:14:14;4.40;53.70
76263;DHT22;65080;50.908;6.916;2023-04-06T04:16:42;4.30;53.70
76263;DHT22;65080;50.908;6.916;2023-04-06T04:19:10;4.40;54.30
76263;DHT22;65080;50.908;6.916;2023-04-06T04:21:43;4.40;53.70
76263;DHT22;65080;50.908;6.916;2023-04-06T04:24:12;4.40;53.70
76263;DHT22;65080;50.908;6.916;2023-04-06T04:26:40;4.30;53.50
76263;DHT22;65080;50.908;6.916;2023-04-06T04:29:08;4.30;53.60
76263;DHT22;65080;50.908;6.916;2023-04-06T04:31:38;4.30;53.60
76263;DHT22;65080;50.908;6.916;2023-04-06T04:34:06;4.30;53.60
76263;DHT22;65080;50.908;6.916;2023-04-06T04:36:34;4.30;53.70
76263;DHT22;65080;50.908;6.916;2023-04-06T04:39:03;4.30;53.80
76263;DHT22;65080;50.908;6.916;2023-04-06T04:41:31;4.30;53.90
76263;DHT22;65080;50.908;6.916;2023-04-06T04:43:59;4.20;53.80
76263;DHT22;65080;50.908;6.916;2023-04-06T04:46:27;4.30;54.00
76263;DHT22;65080;50.908;6.916;2023-04-06T04:48:57;4.30;53.90
76263;DHT22;65080;50.908;6.916;2023-04-06T04:51:25;4.20;53.80
76263;DHT22;65080;50.908;6.916;2023-04-06T04:53:53;4.20;53.80
76263;DHT22;65080;50.908;6.916;2023-04-06T04:56:21;4.20;53.80
76263;DHT22;65080;50.908;6.916;2023-04-06T04:58:49;4.20;54.00
76263;DHT22;65080;50.908;6.916;2023-04-06T05:01:18;4.20;54.00
76263;DHT22;65080;50.908;6.916;2023-04-06T05:03:46;4.20;54.00
76263;DHT22;65080;50.908;6.916;2023-04-06T05:06:16;4.20;54.00
76263;DHT22;65080;50.908;6.916;2023-04-06T05:08:45;4.20;54.00
76263;DHT22;65080;50.908;6.916;2023-04-06T05:11:13;4.20;54.10
76263;DHT22;65080;50.908;6.916;2023-04-06T05:13:41;4.20;54.00
76263;DHT22;65080;50.908;6.916;2023-04-06T05:16:09;4.20;54.00
76263;DHT22;65080;50.908;6.916;2023-04-06T05:18:38;4.20;53.80
76263;DHT22;65080;50.908;6.916;2023-04-06T05:21:06;4.20;53.80
76263;DHT22;65080;50.908;6.916;2023-04-06T05:23:36;4.20;53.80
76263;DHT22;65080;50.908;6.916;2023-04-06T05:26:04;4.30;53.80
76263;DHT22;65080;50.908;6.916;2023-04-06T05:28:32;4.30;53.80
76263;DHT22;65080;50.908;6.916;2023-04-06T05:31:01;4.30;53.80
76263;DHT22;65080;50.908;6.916;2023-04-06T05:33:29;4.30;53.70
76263;DHT22;65080;50.908;6.916;2023-04-06T05:35:57;4.40;53.60
76263;DHT22;65080;50.908;6.916;2023-04-06T05:38:27;4.40;53.60
76263;DHT22;65080;50.908;6.916;2023-04-06T05:40:57;4.40;53.60
76263;DHT22;65080;50.908;6.916;2023-04-06T05:43:25;4.40;54.10
76263;DHT22;65080;50.908;6.916;2023-04-06T05:45:53;4.40;53.50
76263;DHT22;65080;50.908;6.916;2023-04-06T05:48:22;4.50;53.60
76263;DHT22;65080;50.908;6.916;2023-04-06T05:50:50;4.50;53.40
76263;DHT22;65080;50.908;6.916;2023-04-06T05:53:18;4.60;53.40
76263;DHT22;65080;50.908;6.916;2023-04-06T05:55:47;4.70;53.30
76263;DHT22;65080;50.908;6.916;2023-04-06T05:58:17;4.70;53.20
76263;DHT22;65080;50.908;6.916;2023-04-06T06:00:45;4.70;53.10
76263;DHT22;65080;50.908;6.916;2023-04-06T06:03:14;4.80;53.10
76263;DHT22;65080;50.908;6.916;2023-04-06T06:05:42;4.80;53.10
76263;DHT22;65080;50.908;6.916;2023-04-06T06:08:11;4.90;53.10
76263;DHT22;65080;50.908;6.916;2023-04-06T06:10:40;4.90;53.00
76263;DHT22;65080;50.908;6.916;2023-04-06T06:13:08;5.00;53.00
76263;DHT22;65080;50.908;6.916;2023-04-06T06:15:40;5.00;52.90
76263;DHT22;65080;50.908;6.916;2023-04-06T06:18:08;5.10;52.80
76263;DHT22;65080;50.908;6.916;2023-04-06T06:20:37;5.10;52.80
76263;DHT22;65080;50.908;6.916;2023-04-06T06:23:05;5.10;52.80
76263;DHT22;65080;50.908;6.916;2023-04-06T06:25:34;5.20;52.80
76263;DHT22;65080;50.908;6.916;2023-04-06T06:28:02;5.20;52.70
76263;DHT22;65080;50.908;6.916;2023-04-06T06:30:30;5.30;52.80
76263;DHT22;65080;50.908;6.916;2023-04-06T06:33:00;5.40;52.80
76263;DHT22;65080;50.908;6.916;2023-04-06T06:35:28;5.40;52.70
76263;DHT22;65080;50.908;6.916;2023-04-06T06:37:57;5.50;52.70
76263;DHT22;65080;50.908;6.916;2023-04-06T06:40:25;5.60;52.70
76263;DHT22;65080;50.908;6.916;2023-04-06T06:42:54;5.60;52.60
76263;DHT22;65080;50.908;6.916;2023-04-06T06:45:22;5.70;52.50
76263;DHT22;65080;50.908;6.916;2023-04-06T06:47:52;5.80;52.50
76263;DHT22;65080;50.908;6.916;2023-04-06T06:50:23;5.80;52.40
76263;DHT22;65080;50.908;6.916;2023-04-06T06:52:51;5.90;52.40
76263;DHT22;65080;50.908;6.916;2023-04-06T06:55:19;6.00;52.30
76263;DHT22;65080;50.908;6.916;2023-04-06T06:57:47;6.10;52.30
76263;DHT22;65080;50.908;6.916;2023-04-06T07:00:16;6.20;52.10
76263;DHT22;65080;50.908;6.916;2023-04-06T07:02:44;6.30;52.00
76263;DHT22;65080;50.908;6.916;2023-04-06T07:05:13;6.40;52.50
76263;DHT22;65080;50.908;6.916;2023-04-06T07:07:56;6.50;51.90
76263;DHT22;65080;50.908;6.916;2023-04-06T07:10:24;6.60;51.70
76263;DHT22;65080;50.908;6.916;2023-04-06T07:12:53;6.70;51.70
76263;DHT22;65080;50.908;6.916;2023-04-06T07:15:21;6.80;51.70
76263;DHT22;65080;50.908;6.916;2023-04-06T07:17:49;6.90;51.70
76263;DHT22;65080;50.908;6.916;2023-04-06T07:20:19;7.00;51.60
76263;DHT22;65080;50.908;6.916;2023-04-06T07:22:47;7.10;51.50
76263;DHT22;65080;50.908;6.916;2023-04-06T07:25:18;7.20;51.40
76263;DHT22;65080;50.908;6.916;2023-04-06T07:27:46;7.30;51.30
76263;DHT22;65080;50.908;6.916;2023-04-06T07:30:15;7.40;51.70
76263;DHT22;65080;50.908;6.916;2023-04-06T07:32:44;7.50;51.10
76263;DHT22;65080;50.908;6.916;2023-04-06T07:35:12;7.60;51.00
76263;DHT22;65080;50.908;6.916;2023-04-06T07:37:41;7.70;51.00
76263;DHT22;65080;50.908;6.916;2023-04-06T07:40:10;7.80;50.80
76263;DHT22;65080;50.908;6.916;2023-04-06T07:42:39;7.90;50.80
76263;DHT22;65080;50.908;6.916;2023-04-06T07:45:08;8.00;50.70
76263;DHT22;65080;50.908;6.916;2023-04-06T07:47:37;8.10;50.60
76263;DHT22;65080;50.908;6.916;2023-04-06T07:50:06;8.10;50.40
76263;DHT22;65080;50.908;6.916;2023-04-06T07:52:34;8.20;50.30
76263;DHT22;65080;50.908;6.916;2023-04-06T07:55:05;8.30;50.10
76263;DHT22;65080;50.908;6.916;2023-04-06T07:57:33;8.40;50.10
76263;DHT22;65080;50.908;6.916;2023-04-06T08:00:04;8.50;50.00
76263;DHT22;65080;50.908;6.916;2023-04-06T08:02:32;8.50;49.90
76263;DHT22;65080;50.908;6.916;2023-04-06T08:05:01;8.70;49.80
76263;DHT22;65080;50.908;6.916;2023-04-06T08:07:29;8.70;49.60
76263;DHT22;65080;50.908;6.916;2023-04-06T08:09:57;8.80;49.50
76263;DHT22;65080;50.908;6.916;2023-04-06T08:12:26;8.90;49.40
76263;DHT22;65080;50.908;6.916;2023-04-06T08:14:54;9.00;49.30
76263;DHT22;65080;50.908;6.916;2023-04-06T08:17:25;9.10;49.10
76263;DHT22;65080;50.908;6.916;2023-04-06T08:19:56;9.20;49.00
76263;DHT22;65080;50.908;6.916;2023-04-06T08:22:24;9.30;48.90
76263;DHT22;65080;50.908;6.916;2023-04-06T08:24:52;9.40;48.80
76263;DHT22;65080;50.908;6.916;2023-04-06T08:27:20;9.40;48.70
76263;DHT22;65080;50.908;6.916;2023-04-06T08:29:49;9.50;48.60
76263;DHT22;65080;50.908;6.916;2023-04-06T08:32:18;9.50;48.50
76263;DHT22;65080;50.908;6.916;2023-04-06T08:34:47;9.60;48.50
76263;DHT22;65080;50.908;6.916;2023-04-06T08:37:15;9.80;48.40
76263;DHT22;65080;50.908;6.916;2023-04-06T08:39:44;9.80;48.30
76263;DHT22;65080;50.908;6.916;2023-04-06T08:42:18;9.80;48.10
76263;DHT22;65080;50.908;6.916;2023-04-06T08:44:48;9.90;48.00
76263;DHT22;65080;50.908;6.916;2023-04-06T08:47:18;10.00;46.90
76263;DHT22;65080;50.908;6.916;2023-04-06T08:49:53;10.20;46.90
76263;DHT22;65080;50.908;6.916;2023-04-06T08:52:21;10.30;47.40
76263;DHT22;65080;50.908;6.916;2023-04-06T08:54:50;10.40;46.60
76263;DHT22;65080;50.908;6.916;2023-04-06T08:57:19;10.50;46.40
76263;DHT22;65080;50.908;6.916;2023-04-06T08:59:48;10.60;46.20
76263;DHT22;65080;50.908;6.916;2023-04-06T09:02:18;10.70;46.00
76263;DHT22;65080;50.908;6.916;2023-04-06T09:04:48;10.70;45.90
76263;DHT22;65080;50.908;6.916;2023-04-06T09:07:18;10.80;45.80
76263;DHT22;65080;50.908;6.916;2023-04-06T09:09:47;10.90;45.60
76263;DHT22;65080;50.908;6.916;2023-04-06T09:12:25;11.10;45.60
76263;DHT22;65080;50.908;6.916;2023-04-06T09:14:54;11.20;45.30
76263;DHT22;65080;50.908;6.916;2023-04-06T09:17:24;11.30;45.20
76263;DHT22;65080;50.908;6.916;2023-04-06T09:19:53;11.50;45.10
76263;DHT22;65080;50.908;6.916;2023-04-06T09:22:24;11.60;44.90
76263;DHT22;65080;50.908;6.916;2023-04-06T09:24:54;11.60;44.70
76263;DHT22;65080;50.908;6.916;2023-04-06T09:27:30;11.70;44.50
76263;DHT22;65080;50.908;6.916;2023-04-06T09:30:04;11.80;44.50
76263;DHT22;65080;50.908;6.916;2023-04-06T09:32:43;11.90;44.40
76263;DHT22;65080;50.908;6.916;2023-04-06T09:35:12;12.00;44.40
76263;DHT22;65080;50.908;6.916;2023-04-06T09:37:42;12.00;44.20
76263;DHT22;65080;50.908;6.916;2023-04-06T09:40:11;12.10;44.10
76263;DHT22;65080;50.908;6.916;2023-04-06T09:42:41;12.10;44.00
76263;DHT22;65080;50.908;6.916;2023-04-06T09:45:09;12.20;43.90
76263;DHT22;65080;50.908;6.916;2023-04-06T09:47:39;12.20;43.90
76263;DHT22;65080;50.908;6.916;2023-04-06T09:50:10;12.30;43.90
76263;DHT22;65080;50.908;6.916;2023-04-06T09:52:44;12.40;43.80
76263;DHT22;65080;50.908;6.916;2023-04-06T09:55:20;12.50;43.80
76263;DHT22;65080;50.908;6.916;2023-04-06T09:57:52;12.60;43.70
76263;DHT22;65080;50.908;6.916;2023-04-06T10:00:22;12.60;43.50
76263;DHT22;65080;50.908;6.916;2023-04-06T10:02:53;12.70;43.40
76263;DHT22;65080;50.908;6.916;2023-04-06T10:05:31;12.70;43.40
76263;DHT22;65080;50.908;6.916;2023-04-06T10:08:05;12.80;43.30
76263;DHT22;65080;50.908;6.916;2023-04-06T10:10:35;12.90;43.30
76263;DHT22;65080;50.908;6.916;2023-04-06T10:13:04;12.90;43.10
76263;DHT22;65080;50.908;6.916;2023-04-06T10:15:35;13.00;43.10
76263;DHT22;65080;50.908;6.916;2023-04-06T10:18:05;13.10;43.00
76263;DHT22;65080;50.908;6.916;2023-04-06T10:20:39;13.20;42.90
76263;DHT22;65080;50.908;6.916;2023-04-06T10:23:13;13.30;42.90
76263;DHT22;65080;50.908;6.916;2023-04-06T10:25:52;13.40;42.80
76263;DHT22;65080;50.908;6.916;2023-04-06T10:28:21;13.40;42.30
76263;DHT22;65080;50.908;6.916;2023-04-06T10:30:56;13.50;42.20
76263;DHT22;65080;50.908;6.916;2023-04-06T10:33:26;13.50;41.80
76263;DHT22;65080;50.908;6.916;2023-04-06T10:35:55;13.60;41.90
76263;DHT22;65080;50.908;6.916;2023-04-06T10:38:35;13.50;41.70
76263;DHT22;65080;50.908;6.916;2023-04-06T10:41:09;13.70;41.70
76263;DHT22;65080;50.908;6.916;2023-04-06T10:43:38;13.70;41.70
76263;DHT22;65080;50.908;6.916;2023-04-06T10:46:08;13.70;41.40
76263;DHT22;65080;50.908;6.916;2023-04-06T10:48:38;13.80;41.90
76263;DHT22;65080;50.908;6.916;2023-04-06T10:51:09;13.80;41.20
76263;DHT22;65080;50.908;6.916;2023-04-06T10:53:41;13.90;41.10
76263;DHT22;65080;50.908;6.916;2023-04-06T10:56:12;13.90;40.70
76263;DHT22;65080;50.908;6.916;2023-04-06T10:58:44;14.00;40.60
76263;DHT22;65080;50.908;6.916;2023-04-06T11:01:15;14.00;40.30
76263;DHT22;65080;50.908;6.916;2023-04-06T11:03:45;14.20;40.20
76263;DHT22;65080;50.908;6.916;2023-04-06T11:06:19;14.20;39.90
76263;DHT22;65080;50.908;6.916;2023-04-06T11:08:49;14.20;39.30
76263;DHT22;65080;50.908;6.916;2023-04-06T11:11:20;14.30;39.70
76263;DHT22;65080;50.908;6.916;2023-04-06T11:13:50;14.30;38.80
76263;DHT22;65080;50.908;6.916;2023-04-06T11:16:20;14.40;38.50
76263;DHT22;65080;50.908;6.916;2023-04-06T11:18:50;14.40;38.30
76263;DHT22;65080;50.908;6.916;2023-04-06T11:21:20;14.40;38.10
76263;DHT22;65080;50.908;6.916;2023-04-06T11:23:50;14.40;38.10
76263;DHT22;65080;50.908;6.916;2023-04-06T11:26:19;14.50;37.80
76263;DHT22;65080;50.908;6.916;2023-04-06T11:28:48;14.50;37.70
76263;DHT22;65080;50.908;6.916;2023-04-06T11:31:17;14.60;37.90
76263;DHT22;65080;50.908;6.916;2023-04-06T11:33:46;14.60;37.70
76263;DHT22;65080;50.908;6.916;2023-04-06T11:36:14;14.60;37.50
76263;DHT22;65080;50.908;6.916;2023-04-06T11:38:43;14.70;37.50
76263;DHT22;65080;50.908;6.916;2023-04-06T11:41:13;14.60;37.10
76263;DHT22;65080;50.908;6.916;2023-04-06T11:43:47;14.70;37.10
76263;DHT22;65080;50.908;6.916;2023-04-06T11:46:18;14.70;37.00
76263;DHT22;65080;50.908;6.916;2023-04-06T11:48:48;14.70;37.00
76263;DHT22;65080;50.908;6.916;2023-04-06T11:51:22;14.70;37.00
76263;DHT22;65080;50.908;6.916;2023-04-06T11:53:51;14.80;36.90
76263;DHT22;65080;50.908;6.916;2023-04-06T11:56:29;14.80;36.80
76263;DHT22;65080;50.908;6.916;2023-04-06T11:58:58;14.80;36.80
76263;DHT22;65080;50.908;6.916;2023-04-06T12:01:26;14.80;36.80
76263;DHT22;65080;50.908;6.916;2023-04-06T12:03:55;14.90;36.60
76263;DHT22;65080;50.908;6.916;2023-04-06T12:06:23;14.80;36.20
76263;DHT22;65080;50.908;6.916;2023-04-06T12:08:53;14.80;36.00
76263;DHT22;65080;50.908;6.916;2023-04-06T12:11:21;14.80;36.10
76263;DHT22;65080;50.908;6.916;2023-04-06T12:13:50;14.90;36.10
76263;DHT22;65080;50.908;6.916;2023-04-06T12:16:19;15.00;36.00
76263;DHT22;65080;50.908;6.916;2023-04-06T12:18:47;15.00;35.90
76263;DHT22;65080;50.908;6.916;2023-04-06T12:21:16;15.10;35.90
76263;DHT22;65080;50.908;6.916;2023-04-06T12:23:44;15.00;35.80
76263;DHT22;65080;50.908;6.916;2023-04-06T12:26:12;15.10;35.90
76263;DHT22;65080;50.908;6.916;2023-04-06T12:28:41;15.20;35.90
76263;DHT22;65080;50.908;6.916;2023-04-06T12:31:15;15.20;35.80
76263;DHT22;65080;50.908;6.916;2023-04-06T12:33:47;15.10;36.40
76263;DHT22;65080;50.908;6.916;2023-04-06T12:36:15;15.20;35.90
76263;DHT22;65080;50.908;6.916;2023-04-06T12:38:47;15.20;36.10
76263;DHT22;65080;50.908;6.916;2023-04-06T12:41:15;15.20;36.10
76263;DHT22;65080;50.908;6.916;2023-04-06T12:43:44;15.20;36.20
76263;DHT22;65080;50.908;6.916;2023-04-06T12:46:12;15.20;36.30
76263;DHT22;65080;50.908;6.916;2023-04-06T12:48:42;15.20;36.50
76263;DHT22;65080;50.908;6.916;2023-04-06T12:51:10;15.20;36.40
76263;DHT22;65080;50.908;6.916;2023-04-06T12:53:39;15.20;36.50
76263;DHT22;65080;50.908;6.916;2023-04-06T12:56:12;15.20;36.60
76263;DHT22;65080;50.908;6.916;2023-04-06T12:58:40;15.20;36.60
76263;DHT22;65080;50.908;6.916;2023-04-06T13:01:09;15.20;36.90
76263;DHT22;65080;50.908;6.916;2023-04-06T13:03:41;15.10;37.00
76263;DHT22;65080;50.908;6.916;2023-04-06T13:06:10;15.00;37.20
76263;DHT22;65080;50.908;6.916;2023-04-06T13:08:40;14.90;37.30
76263;DHT22;65080;50.908;6.916;2023-04-06T13:11:08;14.80;37.70
76263;DHT22;65080;50.908;6.916;2023-04-06T13:13:37;14.80;38.00
76263;DHT22;65080;50.908;6.916;2023-04-06T13:16:07;14.70;38.30
76263;DHT22;65080;50.908;6.916;2023-04-06T13:18:37;14.60;38.70
76263;DHT22;65080;50.908;6.916;2023-04-06T13:21:08;14.60;39.00
76263;DHT22;65080;50.908;6.916;2023-04-06T13:23:36;14.60;39.30
76263;DHT22;65080;50.908;6.916;2023-04-06T13:26:06;14.50;39.20
76263;DHT22;65080;50.908;6.916;2023-04-06T13:28:36;14.40;39.00
76263;DHT22;65080;50.908;6.916;2023-04-06T13:31:06;14.40;39.10
76263;DHT22;65080;50.908;6.916;2023-04-06T13:33:35;14.40;39.00
76263;DHT22;65080;50.908;6.916;2023-04-06T13:36:04;14.30;39.00
76263;DHT22;65080;50.908;6.916;2023-04-06T13:38:35;14.20;39.20
76263;DHT22;65080;50.908;6.916;2023-04-06T13:41:05;14.10;39.20
76263;DHT22;65080;50.908;6.916;2023-04-06T13:43:33;14.00;39.50
76263;DHT22;65080;50.908;6.916;2023-04-06T13:46:02;13.90;39.70
76263;DHT22;65080;50.908;6.916;2023-04-06T13:48:30;13.70;40.00
76263;DHT22;65080;50.908;6.916;2023-04-06T13:51:07;13.70;40.30
76263;DHT22;65080;50.908;6.916;2023-04-06T13:53:37;13.60;40.60
76263;DHT22;65080;50.908;6.916;2023-04-06T13:56:08;13.50;40.70
76263;DHT22;65080;50.908;6.916;2023-04-06T13:58:36;13.50;41.10
76263;DHT22;65080;50.908;6.916;2023-04-06T14:01:05;13.40;41.10
76263;DHT22;65080;50.908;6.916;2023-04-06T14:03:34;13.40;41.50
76263;DHT22;65080;50.908;6.916;2023-04-06T14:06:10;13.30;41.80
76263;DHT22;65080;50.908;6.916;2023-04-06T14:08:57;13.20;42.20
76263;DHT22;65080;50.908;6.916;2023-04-06T14:11:25;13.10;42.40
76263;DHT22;65080;50.908;6.916;2023-04-06T14:13:54;13.00;42.70
76263;DHT22;65080;50.908;6.916;2023-04-06T14:16:24;12.90;43.70
76263;DHT22;65080;50.908;6.916;2023-04-06T14:18:53;12.90;43.70
76263;DHT22;65080;50.908;6.916;2023-04-06T14:21:22;12.90;44.10
76263;DHT22;65080;50.908;6.916;2023-04-06T14:23:50;12.90;44.60
76263;DHT22;65080;50.908;6.916;2023-04-06T14:26:20;12.90;45.00
76263;DHT22;65080;50.908;6.916;2023-04-06T14:28:49;13.00;45.30
76263;DHT22;65080;50.908;6.916;2023-04-06T14:31:18;13.00;45.50
76263;DHT22;65080;50.908;6.916;2023-04-06T14:33:47;13.00;45.80
76263;DHT22;65080;50.908;6.916;2023-04-06T14:36:16;12.90;46.20
76263;DHT22;65080;50.908;6.916;2023-04-06T14:38:44;12.90;46.60
76263;DHT22;65080;50.908;6.916;2023-04-06T14:41:17;12.80;46.90
76263;DHT22;65080;50.908;6.916;2023-04-06T14:43:47;12.70;47.30
76263;DHT22;65080;50.908;6.916;2023-04-06T14:46:16;12.70;47.70
76263;DHT22;65080;50.908;6.916;2023-04-06T14:48:44;12.60;47.80
76263;DHT22;65080;50.908;6.916;2023-04-06T14:51:13;12.60;48.30
76263;DHT22;65080;50.908;6.916;2023-04-06T14:53:41;12.60;48.70
76263;DHT22;65080;50.908;6.916;2023-04-06T14:56:10;12.50;48.90
76263;DHT22;65080;50.908;6.916;2023-04-06T14:58:38;12.50;49.40
76263;DHT22;65080;50.908;6.916;2023-04-06T15:01:08;12.40;49.90
76263;DHT22;65080;50.908;6.916;2023-04-06T15:03:36;12.30;50.00
76263;DHT22;65080;50.908;6.916;2023-04-06T15:06:11;12.30;50.40
76263;DHT22;65080;50.908;6.916;2023-04-06T15:08:42;12.20;50.80
76263;DHT22;65080;50.908;6.916;2023-04-06T15:11:11;12.20;51.10
76263;DHT22;65080;50.908;6.916;2023-04-06T15:13:40;12.20;51.60
76263;DHT22;65080;50.908;6.916;2023-04-06T15:16:10;12.10;52.00
76263;DHT22;65080;50.908;6.916;2023-04-06T15:18:38;12.00;52.40
76263;DHT22;65080;50.908;6.916;2023-04-06T15:21:06;11.90;52.50
76263;DHT22;65080;50.908;6.916;2023-04-06T15:23:34;11.80;52.70
76263;DHT22;65080;50.908;6.916;2023-04-06T15:26:02;11.80;53.20
76263;DHT22;65080;50.908;6.916;2023-04-06T15:28:31;11.70;53.60
76263;DHT22;65080;50.908;6.916;2023-04-06T15:31:00;11.70;53.80
76263;DHT22;65080;50.908;6.916;2023-04-06T15:33:34;11.60;54.30
76263;DHT22;65080;50.908;6.916;2023-04-06T15:36:06;11.60;54.90
76263;DHT22;65080;50.908;6.916;2023-04-06T15:38:44;11.50;55.30
76263;DHT22;65080;50.908;6.916;2023-04-06T15:41:13;11.40;55.60
76263;DHT22;65080;50.908;6.916;2023-04-06T15:43:42;11.40;56.10
76263;DHT22;65080;50.908;6.916;2023-04-06T15:46:10;11.30;56.60
76263;DHT22;65080;50.908;6.916;2023-04-06T15:48:40;11.20;56.90
76263;DHT22;65080;50.908;6.916;2023-04-06T15:51:09;11.10;57.20
76263;DHT22;65080;50.908;6.916;2023-04-06T15:53:37;11.10;57.60
76263;DHT22;65080;50.908;6.916;2023-04-06T15:56:06;11.00;57.90